Choluteca, Honduras
Current Conditions -  °F | °C
As of 2:00 AM on Thursday 29 Jan 2015 (Local Time) from MHTG Reporting Station
Rain Showers Rain Showers  
Wind Chill: 61°   Ceiling: 2600
Heat Index: 61°   Visibility: 5mi
Dew Point: 57°   Wind: 12mph
Humidity: 88%   Direction: 360°N
Pressure: 30.09"   Gusts: NA
Location:  13.3°N, 87.2°W
Report Text: MHTG 290800Z 36010KT 8000 VCSH FEW010 BKN026 16/14 Q1019 A3009NOSIG
Loading
Personal Weather Stations






























Interactive Weather Map New forecast layout! Learn more

10-Day Weather Forecast

Advertisements
Track Severe Weather on mobile